createdAt,value
2022-09-07T00:00:53.692Z,3.55
2022-09-07T00:03:40.488Z,3.28
2022-09-07T00:06:27.291Z,3.20
2022-09-07T00:09:14.197Z,3.40
2022-09-07T00:12:01.018Z,3.43
2022-09-07T00:14:48.099Z,3.90
2022-09-07T00:17:35.588Z,4.70
2022-09-07T00:20:22.660Z,5.25
2022-09-07T00:23:09.438Z,5.88
2022-09-07T00:26:26.112Z,5.65
2022-09-07T00:29:12.870Z,5.47
2022-09-07T00:31:59.622Z,5.38
2022-09-07T00:34:46.398Z,5.60
2022-09-07T00:37:33.185Z,5.00
2022-09-07T00:40:19.941Z,5.50
2022-09-07T00:43:07.560Z,6.28
2022-09-07T00:45:54.290Z,6.05
2022-09-07T00:48:49.399Z,5.40
2022-09-07T00:51:41.055Z,5.90
2022-09-07T00:54:39.742Z,4.63
2022-09-07T00:57:28.148Z,4.40
2022-09-07T01:00:15.303Z,4.20
2022-09-07T01:03:03.119Z,3.72
2022-09-07T01:08:41.511Z,4.80
2022-09-07T01:14:15.792Z,4.43
2022-09-07T01:17:11.543Z,3.88
2022-09-07T01:20:30.987Z,3.97
2022-09-07T01:23:35.392Z,3.70
2022-09-07T01:26:30.953Z,3.55
2022-09-07T01:29:40.916Z,3.42
2022-09-07T01:32:33.542Z,3.67
2022-09-07T01:35:38.995Z,3.75
2022-09-07T01:38:40.579Z,3.15
2022-09-07T01:41:43.577Z,3.35
2022-09-07T01:44:34.915Z,3.28
2022-09-07T01:47:25.708Z,3.85
2022-09-07T01:50:36.258Z,3.20
2022-09-07T01:53:54.515Z,3.60
2022-09-07T01:56:45.216Z,3.00
2022-09-07T02:00:21.450Z,3.10
2022-09-07T02:03:15.145Z,2.75
2022-09-07T02:06:13.609Z,2.90
2022-09-07T02:11:50.555Z,2.90
2022-09-07T02:14:40.999Z,3.30
2022-09-07T02:17:39.199Z,3.00
2022-09-07T02:20:31.270Z,3.20
2022-09-07T02:23:23.148Z,3.08
2022-09-07T02:26:15.258Z,2.60
2022-09-07T02:29:02.209Z,2.50
2022-09-07T02:31:51.115Z,2.57
2022-09-07T02:34:37.995Z,3.00
2022-09-07T02:37:27.885Z,3.53
2022-09-07T02:40:14.894Z,2.85
2022-09-07T02:43:07.611Z,2.77
2022-09-07T02:46:17.498Z,3.00
2022-09-07T02:49:13.859Z,2.72
2022-09-07T02:52:19.434Z,2.70
2022-09-07T02:55:15.720Z,2.70
2022-09-07T02:58:08.161Z,2.40
2022-09-07T03:01:07.613Z,2.17
2022-09-07T03:04:30.813Z,2.25
2022-09-07T03:07:30.532Z,2.58
2022-09-07T03:10:18.502Z,2.42
2022-09-07T03:13:05.635Z,2.28
2022-09-07T03:15:55.991Z,2.33
2022-09-07T03:18:44.248Z,2.38
2022-09-07T03:24:20.394Z,2.40
2022-09-07T03:27:07.159Z,2.33
2022-09-07T03:29:53.969Z,2.20
2022-09-07T03:32:40.745Z,2.30
2022-09-07T03:35:27.531Z,2.35
2022-09-07T03:38:14.283Z,2.40
2022-09-07T03:41:02.415Z,2.00
2022-09-07T03:43:49.203Z,2.10
2022-09-07T03:46:36.365Z,1.98
2022-09-07T03:49:23.176Z,1.77
2022-09-07T03:52:10.023Z,1.90
2022-09-07T03:54:56.758Z,1.70
2022-09-07T03:57:43.630Z,1.48
2022-09-07T04:00:30.410Z,2.00
2022-09-07T04:03:17.180Z,2.13
2022-09-07T04:06:04.464Z,2.30
2022-09-07T04:08:51.351Z,2.13
2022-09-07T04:11:39.115Z,1.97
2022-09-07T04:14:25.886Z,1.90
2022-09-07T04:17:12.728Z,2.00
2022-09-07T04:19:59.626Z,1.67
2022-09-07T04:22:51.442Z,2.00
2022-09-07T04:25:51.486Z,1.58
2022-09-07T04:28:38.215Z,1.90
2022-09-07T04:31:25.719Z,3.70
2022-09-07T04:34:12.679Z,4.40
2022-09-07T04:36:59.400Z,4.93
2022-09-07T04:39:46.642Z,4.70
2022-09-07T04:42:33.408Z,6.20
2022-09-07T04:45:20.174Z,7.10
2022-09-07T04:48:07.115Z,7.65
2022-09-07T04:50:53.830Z,8.23
2022-09-07T04:53:40.626Z,8.07
2022-09-07T04:56:27.933Z,6.95
2022-09-07T04:59:14.652Z,5.72
2022-09-07T05:02:01.457Z,5.60
2022-09-07T05:04:48.431Z,5.40
2022-09-07T05:07:35.589Z,5.53
2022-09-07T05:10:22.371Z,4.97
2022-09-07T05:13:09.116Z,5.15
2022-09-07T05:15:55.928Z,4.80
2022-09-07T05:18:42.971Z,4.35
2022-09-07T05:21:31.993Z,4.10
2022-09-07T05:24:18.976Z,4.40
2022-09-07T05:27:05.780Z,6.70
2022-09-07T05:32:46.582Z,10.93
2022-09-07T05:35:33.764Z,10.27
2022-09-07T05:38:20.483Z,8.98
2022-09-07T05:41:19.342Z,7.85
2022-09-07T05:47:14.052Z,6.60
2022-09-07T05:50:01.070Z,6.18
2022-09-07T05:52:49.217Z,5.65
2022-09-07T05:55:35.958Z,5.38
2022-09-07T05:58:22.698Z,5.50
2022-09-07T06:01:11.967Z,6.07
2022-09-07T06:03:58.897Z,6.80
2022-09-07T06:06:59.310Z,6.00
2022-09-07T06:12:58.467Z,6.00
2022-09-07T06:15:45.429Z,6.47
2022-09-07T06:18:34.747Z,6.60
2022-09-07T06:21:23.798Z,6.60
2022-09-07T06:24:10.696Z,6.65
2022-09-07T06:26:57.515Z,5.83
2022-09-07T06:29:44.282Z,6.00
2022-09-07T06:32:46.378Z,6.35
2022-09-07T06:35:33.212Z,5.30
2022-09-07T06:38:19.952Z,6.35
2022-09-07T06:44:16.250Z,6.95
2022-09-07T06:47:04.193Z,7.72
2022-09-07T06:49:51.719Z,7.38
2022-09-07T06:55:45.518Z,6.68
2022-09-07T06:58:32.544Z,6.87
2022-09-07T07:01:23.920Z,6.18
2022-09-07T07:04:10.906Z,5.80
2022-09-07T07:06:57.699Z,5.73
2022-09-07T07:09:46.883Z,5.35
2022-09-07T07:15:25.259Z,4.90
2022-09-07T07:18:20.832Z,5.75
2022-09-07T07:21:13.607Z,6.32
2022-09-07T07:24:07.960Z,6.28
2022-09-07T07:26:55.184Z,6.78
2022-09-07T07:29:42.071Z,6.00
2022-09-07T07:32:29.089Z,6.78
2022-09-07T07:35:16.293Z,6.10
2022-09-07T07:44:17.665Z,5.20
2022-09-07T07:47:04.710Z,4.88
2022-09-07T07:50:30.559Z,4.57
2022-09-07T07:56:06.468Z,3.83
2022-09-07T07:58:53.589Z,3.67
2022-09-07T08:01:40.407Z,3.17
2022-09-07T08:04:27.514Z,3.57
2022-09-07T08:07:15.757Z,3.08
2022-09-07T08:10:02.505Z,2.97
2022-09-07T08:12:49.307Z,3.30
2022-09-07T08:15:46.357Z,4.15
2022-09-07T08:18:34.891Z,3.60
2022-09-07T08:21:21.650Z,3.40
2022-09-07T08:24:08.434Z,3.72
2022-09-07T08:26:55.189Z,3.80
2022-09-07T08:29:41.885Z,4.20
2022-09-07T08:32:31.805Z,3.90
2022-09-07T08:35:19.825Z,3.97
2022-09-07T08:38:06.690Z,4.15
2022-09-07T08:40:55.244Z,4.85
2022-09-07T08:43:52.877Z,3.25
2022-09-07T08:46:48.482Z,3.80
2022-09-07T08:49:54.097Z,3.83
2022-09-07T08:52:46.823Z,3.45
2022-09-07T08:55:43.448Z,3.00
2022-09-07T08:58:53.207Z,3.17
2022-09-07T09:01:43.188Z,3.28
2022-09-07T09:04:31.683Z,2.80
2022-09-07T09:07:31.574Z,2.75
2022-09-07T09:10:37.096Z,2.92
2022-09-07T09:14:00.183Z,3.40
2022-09-07T09:16:53.094Z,3.00
2022-09-07T09:19:48.858Z,3.00
2022-09-07T09:22:35.741Z,2.63
2022-09-07T09:25:31.466Z,2.97
2022-09-07T09:28:18.246Z,3.08
2022-09-07T09:31:05.217Z,2.80
2022-09-07T09:34:14.699Z,3.08
2022-09-07T09:37:01.473Z,3.30
2022-09-07T09:40:00.684Z,2.90
2022-09-07T09:43:19.040Z,3.13
2022-09-07T09:46:19.537Z,2.83
2022-09-07T09:49:16.046Z,2.60
2022-09-07T09:55:41.188Z,3.42
2022-09-07T10:04:56.116Z,3.20
2022-09-07T10:07:52.009Z,3.10
2022-09-07T10:10:49.668Z,3.00
2022-09-07T10:13:44.110Z,3.10
2022-09-07T10:16:40.442Z,3.28
2022-09-07T10:19:32.607Z,3.22
2022-09-07T10:22:40.458Z,3.08
2022-09-07T10:25:37.554Z,2.90
2022-09-07T10:28:25.163Z,2.58
2022-09-07T10:31:24.133Z,2.47
2022-09-07T10:34:33.551Z,2.20
2022-09-07T10:37:38.912Z,1.80
2022-09-07T10:40:31.833Z,2.30
2022-09-07T10:43:36.281Z,2.38
2022-09-07T10:53:37.126Z,1.80
2022-09-07T10:56:27.843Z,2.00
2022-09-07T11:06:25.708Z,1.70
2022-09-07T11:09:27.628Z,1.50
2022-09-07T11:12:30.752Z,1.27
2022-09-07T11:15:25.165Z,1.50
2022-09-07T11:18:38.593Z,1.60
2022-09-07T11:22:01.177Z,1.27
2022-09-07T11:25:29.005Z,1.13
2022-09-07T11:28:01.826Z,0.90
2022-09-07T11:30:56.687Z,0.90
2022-09-07T11:37:23.331Z,0.57
2022-09-07T11:40:21.483Z,0.50
2022-09-07T11:43:24.768Z,0.70
2022-09-07T11:46:15.257Z,0.85
2022-09-07T11:49:04.779Z,0.82
2022-09-07T11:52:04.872Z,1.05
2022-09-07T11:54:55.091Z,1.20
2022-09-07T11:58:09.833Z,1.30
2022-09-07T12:01:24.477Z,1.00
2022-09-07T12:04:29.476Z,1.00
2022-09-07T12:07:52.035Z,1.10
2022-09-07T12:11:12.808Z,1.35
2022-09-07T12:14:30.799Z,1.60
2022-09-07T12:17:39.372Z,1.38
2022-09-07T12:20:39.247Z,1.50
2022-09-07T12:23:33.396Z,1.60
2022-09-07T12:26:38.103Z,1.30
2022-09-07T12:29:26.568Z,1.80
2022-09-07T12:35:41.316Z,1.60
2022-09-07T12:38:31.179Z,1.55
2022-09-07T12:41:23.823Z,1.35
2022-09-07T12:44:16.908Z,1.30
2022-09-07T12:47:12.897Z,1.20
2022-09-07T12:50:28.419Z,1.10
2022-09-07T12:53:28.767Z,1.20
2022-09-07T12:56:33.521Z,0.90
2022-09-07T12:59:38.011Z,0.98
2022-09-07T13:02:47.509Z,0.70
2022-09-07T13:05:52.810Z,0.80
2022-09-07T13:09:10.866Z,0.50
2022-09-07T13:11:58.834Z,0.57
2022-09-07T13:14:54.453Z,0.60
2022-09-07T13:17:42.894Z,0.60
2022-09-07T13:20:37.682Z,0.80
2022-09-07T13:23:26.267Z,0.80
2022-09-07T13:26:51.497Z,0.70
2022-09-07T13:29:41.739Z,0.80
2022-09-07T13:35:38.991Z,1.60
2022-09-07T13:38:26.403Z,1.52
2022-09-07T13:41:16.852Z,1.90
2022-09-07T13:44:03.970Z,1.85
2022-09-07T13:47:22.285Z,1.58
2022-09-07T13:50:18.444Z,1.60
2022-09-07T13:53:08.203Z,1.73
2022-09-07T13:56:18.999Z,1.65
2022-09-07T13:59:23.130Z,1.65
2022-09-07T14:02:34.856Z,1.60
2022-09-07T14:05:22.431Z,1.70
2022-09-07T14:11:26.026Z,1.80
2022-09-07T14:14:19.186Z,1.92
2022-09-07T14:17:10.959Z,1.50
2022-09-07T14:19:59.620Z,1.40
2022-09-07T14:22:50.615Z,1.50
2022-09-07T14:28:51.140Z,1.40
2022-09-07T14:31:37.963Z,1.02
2022-09-07T14:34:37.639Z,1.10
2022-09-07T14:37:24.526Z,1.10
2022-09-07T14:40:25.386Z,0.80
2022-09-07T14:43:30.829Z,1.00
2022-09-07T14:46:25.078Z,0.90
2022-09-07T14:49:20.838Z,1.10
2022-09-07T14:52:07.674Z,1.10
2022-09-07T14:54:54.396Z,1.00
2022-09-07T14:57:41.370Z,1.40
2022-09-07T15:00:31.731Z,1.40
2022-09-07T15:03:35.587Z,1.25
2022-09-07T15:07:01.810Z,1.30
2022-09-07T15:09:49.151Z,1.30
2022-09-07T15:12:43.402Z,1.20
2022-09-07T15:15:34.544Z,1.13
2022-09-07T15:19:01.719Z,1.23
2022-09-07T15:21:48.802Z,1.30
2022-09-07T15:24:35.627Z,1.40
2022-09-07T15:27:29.109Z,1.40
2022-09-07T15:30:17.442Z,1.45
2022-09-07T15:33:04.451Z,1.45
2022-09-07T15:35:52.712Z,1.30
2022-09-07T15:41:46.979Z,1.40
2022-09-07T15:50:27.461Z,1.83
2022-09-07T15:56:21.721Z,1.60
2022-09-07T15:59:10.546Z,1.90
2022-09-07T16:01:58.177Z,1.52
2022-09-07T16:04:45.350Z,1.33
2022-09-07T16:10:39.591Z,1.60
2022-09-07T16:13:26.275Z,1.27
2022-09-07T16:16:15.741Z,1.50
2022-09-07T16:19:07.353Z,1.27
2022-09-07T16:21:57.626Z,1.30
2022-09-07T16:24:44.568Z,1.08
2022-09-07T16:27:33.012Z,1.30
2022-09-07T16:30:22.201Z,1.02
2022-09-07T16:33:09.061Z,1.23
2022-09-07T16:35:59.585Z,1.40
2022-09-07T16:38:49.283Z,1.15
2022-09-07T16:41:38.793Z,1.40
2022-09-07T16:44:25.523Z,1.10
2022-09-07T16:47:12.795Z,1.07
2022-09-07T16:50:02.459Z,1.23
2022-09-07T16:52:49.167Z,1.20
2022-09-07T16:55:38.607Z,1.20
2022-09-07T16:58:40.981Z,1.10
2022-09-07T17:01:35.758Z,1.10
2022-09-07T17:04:23.378Z,1.00
2022-09-07T17:09:57.174Z,1.20
2022-09-07T17:12:43.858Z,1.20
2022-09-07T17:15:34.814Z,1.00
2022-09-07T17:19:28.954Z,1.42
2022-09-07T17:21:39.175Z,1.40
2022-09-07T17:24:25.963Z,1.23
2022-09-07T17:27:13.349Z,1.52
2022-09-07T17:30:00.170Z,1.60
2022-09-07T17:32:47.140Z,1.40
2022-09-07T17:35:37.408Z,1.55
2022-09-07T17:41:30.978Z,1.60
2022-09-07T17:44:17.827Z,1.40
2022-09-07T17:47:04.986Z,1.43
2022-09-07T17:49:51.767Z,1.63
2022-09-07T17:52:40.388Z,1.57
2022-09-07T17:55:32.222Z,1.50
2022-09-07T17:58:18.930Z,1.30
2022-09-07T18:01:10.006Z,1.50
2022-09-07T18:03:57.939Z,1.50
2022-09-07T18:06:44.645Z,2.50
2022-09-07T18:09:31.439Z,2.55
2022-09-07T18:12:18.347Z,2.80
2022-09-07T18:15:05.470Z,2.30
2022-09-07T18:17:52.268Z,2.13
2022-09-07T18:20:40.238Z,2.33
2022-09-07T18:23:27.044Z,2.00
2022-09-07T18:26:15.734Z,2.07
2022-09-07T18:29:03.605Z,1.98
2022-09-07T18:31:51.091Z,1.70
2022-09-07T18:34:40.744Z,1.73
2022-09-07T18:37:31.285Z,1.83
2022-09-07T18:40:21.332Z,1.88
2022-09-07T18:43:08.576Z,2.00
2022-09-07T18:46:01.744Z,2.90
2022-09-07T18:48:48.556Z,2.70
2022-09-07T18:52:51.780Z,2.55
2022-09-07T18:54:47.435Z,2.60
2022-09-07T18:57:43.040Z,2.10
2022-09-07T19:00:29.839Z,2.10
2022-09-07T19:03:17.535Z,2.03
2022-09-07T19:09:00.435Z,2.30
2022-09-07T19:11:53.415Z,2.20
2022-09-07T19:14:42.442Z,2.10
2022-09-07T19:17:29.396Z,1.90
2022-09-07T19:20:18.495Z,1.83
2022-09-07T19:23:10.930Z,2.00
2022-09-07T19:26:04.656Z,1.80
2022-09-07T19:28:57.260Z,1.90
2022-09-07T19:32:04.059Z,1.98
2022-09-07T19:35:03.001Z,1.60
2022-09-07T19:37:49.918Z,1.92
2022-09-07T19:40:49.914Z,1.90
2022-09-07T19:43:39.069Z,1.60
2022-09-07T19:46:28.817Z,1.90
2022-09-07T19:49:15.761Z,1.58
2022-09-07T19:52:05.158Z,1.60
2022-09-07T19:54:56.167Z,1.60
2022-09-07T19:57:47.498Z,1.45
2022-09-07T20:00:52.303Z,1.55
2022-09-07T20:03:43.253Z,1.70
2022-09-07T20:06:34.631Z,1.70
2022-09-07T20:09:21.358Z,2.22
2022-09-07T20:12:11.296Z,2.30
2022-09-07T20:14:58.036Z,2.25
2022-09-07T20:17:47.511Z,2.20
2022-09-07T20:20:34.535Z,1.90
2022-09-07T20:23:21.883Z,2.50
2022-09-07T20:26:33.148Z,2.17
2022-09-07T20:29:28.494Z,2.67
2022-09-07T20:32:24.151Z,2.20
2022-09-07T20:35:17.188Z,2.35
2022-09-07T20:38:07.156Z,2.45
2022-09-07T20:40:57.053Z,2.50
2022-09-07T20:43:43.850Z,2.88
2022-09-07T20:46:34.052Z,2.45
2022-09-07T20:49:23.856Z,2.80
2022-09-07T20:52:13.906Z,2.95
2022-09-07T20:55:01.680Z,2.90
2022-09-07T21:00:38.580Z,2.58
2022-09-07T21:03:28.792Z,2.37
2022-09-07T21:06:16.146Z,2.47
2022-09-07T21:09:12.695Z,2.88
2022-09-07T21:11:59.473Z,2.97
2022-09-07T21:14:54.200Z,2.78
2022-09-07T21:17:40.972Z,2.75
2022-09-07T21:20:30.698Z,2.58
2022-09-07T21:23:17.398Z,2.50
2022-09-07T21:26:05.247Z,2.78
2022-09-07T21:31:50.122Z,2.90
2022-09-07T21:34:36.860Z,3.10
2022-09-07T21:37:26.333Z,3.13
2022-09-07T21:40:15.436Z,2.88
2022-09-07T21:43:02.256Z,2.50
2022-09-07T21:45:49.574Z,2.92
2022-09-07T21:48:36.471Z,2.17
2022-09-07T21:51:27.000Z,2.23
2022-09-07T21:54:13.761Z,2.30
2022-09-07T21:57:01.407Z,2.17
2022-09-07T21:59:49.882Z,2.55
2022-09-07T22:02:36.670Z,2.28
2022-09-07T22:05:26.446Z,2.40
2022-09-07T22:08:19.281Z,2.10
2022-09-07T22:11:15.702Z,1.90
2022-09-07T22:14:03.916Z,1.95
2022-09-07T22:16:50.647Z,1.73
2022-09-07T22:19:41.390Z,1.60
2022-09-07T22:22:28.140Z,1.98
2022-09-07T22:25:15.126Z,2.13
2022-09-07T22:28:02.068Z,1.80
2022-09-07T22:30:48.775Z,1.80
2022-09-07T22:33:37.803Z,2.00
2022-09-07T22:36:27.938Z,1.95
2022-09-07T22:39:17.168Z,2.10
2022-09-07T22:42:06.605Z,2.13
2022-09-07T22:44:59.519Z,2.40
2022-09-07T22:47:46.307Z,1.77
2022-09-07T22:50:33.880Z,1.70
2022-09-07T22:53:20.571Z,1.70
2022-09-07T22:56:10.536Z,1.50
2022-09-07T22:59:00.022Z,1.40
2022-09-07T23:01:47.019Z,1.60
2022-09-07T23:04:33.813Z,1.93
2022-09-07T23:07:21.864Z,2.10
2022-09-07T23:10:09.109Z,2.33
2022-09-07T23:12:55.942Z,2.22
2022-09-07T23:15:43.670Z,2.67
2022-09-07T23:21:17.718Z,2.20
2022-09-07T23:24:04.632Z,2.60
2022-09-07T23:26:51.387Z,2.30
2022-09-07T23:29:38.167Z,1.88
2022-09-07T23:32:24.903Z,2.13
2022-09-07T23:35:14.900Z,2.00
2022-09-07T23:38:03.547Z,2.15
2022-09-07T23:40:50.344Z,2.40
2022-09-07T23:43:37.197Z,2.10
2022-09-07T23:46:24.627Z,2.60
2022-09-07T23:49:11.474Z,2.53
2022-09-07T23:51:58.246Z,2.22
2022-09-07T23:54:45.192Z,2.72
2022-09-07T23:57:32.495Z,2.27
